createdAt,value
2022-07-28T00:01:05.592Z,27.98
2022-07-28T00:03:35.084Z,28.04
2022-07-28T00:06:07.872Z,27.82
2022-07-28T00:08:37.776Z,27.67
2022-07-28T00:11:10.877Z,27.78
2022-07-28T00:13:46.813Z,27.85
2022-07-28T00:16:17.138Z,27.74
2022-07-28T00:18:44.439Z,27.69
2022-07-28T00:21:19.758Z,27.81
2022-07-28T00:23:49.551Z,28.01
2022-07-28T00:26:22.086Z,28.16
2022-07-28T00:28:51.719Z,28.52
2022-07-28T00:31:24.886Z,28.44
2022-07-28T00:33:52.401Z,28.11
2022-07-28T00:36:25.625Z,27.93
2022-07-28T00:38:58.452Z,27.70
2022-07-28T00:41:27.364Z,27.93
2022-07-28T00:43:57.014Z,28.18
2022-07-28T00:46:24.681Z,28.49
2022-07-28T00:48:56.333Z,28.48
2022-07-28T00:51:33.462Z,28.33
2022-07-28T00:54:03.686Z,28.29
2022-07-28T00:56:35.929Z,28.23
2022-07-28T00:59:12.171Z,28.28
2022-07-28T01:01:41.894Z,28.47
2022-07-28T01:04:15.280Z,28.25
2022-07-28T01:06:50.848Z,28.51
2022-07-28T01:09:32.104Z,28.69
2022-07-28T01:12:19.000Z,28.71
2022-07-28T01:14:50.328Z,28.79
2022-07-28T01:17:20.670Z,28.80
2022-07-28T01:19:47.864Z,28.85
2022-07-28T01:22:16.517Z,28.80
2022-07-28T01:24:56.777Z,28.24
2022-07-28T01:27:32.508Z,28.03
2022-07-28T01:30:27.802Z,27.77
2022-07-28T01:33:05.128Z,27.91
2022-07-28T01:35:37.561Z,28.11
2022-07-28T01:38:08.259Z,28.16
2022-07-28T01:40:40.406Z,28.08
2022-07-28T01:43:12.491Z,28.13
2022-07-28T01:45:41.700Z,28.22
2022-07-28T01:48:34.529Z,27.98
2022-07-28T01:51:04.210Z,28.14
2022-07-28T01:53:31.599Z,28.24
2022-07-28T01:56:08.160Z,27.85
2022-07-28T01:58:40.723Z,28.01
2022-07-28T02:01:10.870Z,28.14
2022-07-28T02:03:38.243Z,28.18
2022-07-28T02:06:11.814Z,28.22
2022-07-28T02:08:42.477Z,28.25
2022-07-28T02:11:42.615Z,28.27
2022-07-28T02:14:13.525Z,28.40
2022-07-28T02:16:56.744Z,28.32
2022-07-28T02:19:26.638Z,28.41
2022-07-28T02:21:59.031Z,28.09
2022-07-28T02:24:26.860Z,27.79
2022-07-28T02:27:01.838Z,27.79
2022-07-28T02:32:27.424Z,27.97
2022-07-28T02:35:04.694Z,28.03
2022-07-28T02:37:39.333Z,27.53
2022-07-28T02:40:09.983Z,27.77
2022-07-28T02:42:40.736Z,27.74
2022-07-28T02:45:22.094Z,27.84
2022-07-28T02:47:54.990Z,28.01
2022-07-28T02:50:26.679Z,28.05
2022-07-28T02:52:59.614Z,26.88
2022-07-28T02:55:30.092Z,26.94
2022-07-28T02:58:00.129Z,27.31
2022-07-28T03:00:27.688Z,27.55
2022-07-28T03:02:56.015Z,27.44
2022-07-28T03:05:31.077Z,27.45
2022-07-28T03:08:03.497Z,27.63
2022-07-28T03:10:34.825Z,27.56
2022-07-28T03:13:06.898Z,27.63
2022-07-28T03:15:35.519Z,27.66
2022-07-28T03:18:07.955Z,27.12
2022-07-28T03:20:41.381Z,27.40
2022-07-28T03:23:10.693Z,27.23
2022-07-28T03:26:17.913Z,27.39
2022-07-28T03:28:48.502Z,27.49
2022-07-28T03:31:19.099Z,27.73
2022-07-28T03:33:46.545Z,27.63
2022-07-28T03:36:21.694Z,27.48
2022-07-28T03:38:54.741Z,27.52
2022-07-28T03:41:27.599Z,27.54
2022-07-28T03:43:55.955Z,27.48
2022-07-28T03:46:27.865Z,27.65
2022-07-28T03:49:00.153Z,27.28
2022-07-28T03:51:30.577Z,27.15
2022-07-28T03:54:05.241Z,27.07
2022-07-28T03:56:38.678Z,26.76
2022-07-28T03:59:11.426Z,26.56
2022-07-28T04:01:41.171Z,26.96
2022-07-28T04:04:08.813Z,27.05
2022-07-28T04:06:41.201Z,27.30
2022-07-28T04:09:08.500Z,27.17
2022-07-28T04:11:38.163Z,27.13
2022-07-28T04:14:11.027Z,27.30
2022-07-28T04:16:44.891Z,27.39
2022-07-28T04:22:15.789Z,27.50
2022-07-28T04:24:48.279Z,27.58
2022-07-28T04:28:05.772Z,27.57
2022-07-28T04:30:43.762Z,27.73
2022-07-28T04:33:12.912Z,27.78
2022-07-28T04:35:42.367Z,27.72
2022-07-28T04:38:12.160Z,27.69
2022-07-28T04:43:27.491Z,27.39
2022-07-28T04:46:00.015Z,27.23
2022-07-28T04:48:27.900Z,27.22
2022-07-28T04:51:00.241Z,27.25
2022-07-28T04:53:29.370Z,27.39
2022-07-28T04:55:58.861Z,27.46
2022-07-28T04:58:28.408Z,27.47
2022-07-28T05:00:58.332Z,27.53
2022-07-28T05:03:26.892Z,27.10
2022-07-28T05:06:04.977Z,26.57
2022-07-28T05:08:34.912Z,26.45
2022-07-28T05:11:04.959Z,26.77
2022-07-28T05:13:35.865Z,26.57
2022-07-28T05:16:11.240Z,26.41
2022-07-28T05:18:41.427Z,26.45
2022-07-28T05:21:11.652Z,26.42
2022-07-28T05:23:47.709Z,26.30
2022-07-28T05:26:17.532Z,26.51
2022-07-28T05:28:53.177Z,26.55
2022-07-28T05:31:22.957Z,26.57
2022-07-28T05:33:52.752Z,26.60
2022-07-28T05:36:28.765Z,26.56
2022-07-28T05:38:56.102Z,26.43
2022-07-28T05:41:25.664Z,26.33
2022-07-28T05:43:53.001Z,26.48
2022-07-28T05:46:24.556Z,26.55
2022-07-28T05:48:53.119Z,26.48
2022-07-28T05:51:20.513Z,26.56
2022-07-28T05:53:50.096Z,26.71
2022-07-28T05:56:22.058Z,26.85
2022-07-28T05:58:52.454Z,27.01
2022-07-28T06:01:24.636Z,26.90
2022-07-28T06:04:03.642Z,26.86
2022-07-28T06:06:41.939Z,27.02
2022-07-28T06:09:09.168Z,27.11
2022-07-28T06:11:38.924Z,26.90
2022-07-28T06:14:07.514Z,26.89
2022-07-28T06:16:38.882Z,26.88
2022-07-28T06:22:03.994Z,27.08
2022-07-28T06:24:31.343Z,27.17
2022-07-28T06:26:58.601Z,27.30
2022-07-28T06:29:28.358Z,27.28
2022-07-28T06:31:55.788Z,27.31
2022-07-28T06:34:32.242Z,27.38
2022-07-28T06:37:02.679Z,27.47
2022-07-28T06:39:30.208Z,27.53
2022-07-28T06:42:02.451Z,27.45
2022-07-28T06:44:54.922Z,27.45
2022-07-28T06:47:22.414Z,27.50
2022-07-28T06:49:49.742Z,27.40
2022-07-28T06:52:20.814Z,27.42
2022-07-28T06:54:52.288Z,27.50
2022-07-28T06:57:20.860Z,27.49
2022-07-28T06:59:49.082Z,27.48
2022-07-28T07:02:16.945Z,27.69
2022-07-28T07:04:47.559Z,27.79
2022-07-28T07:07:16.841Z,27.79
2022-07-28T07:09:44.563Z,27.69
2022-07-28T07:12:14.685Z,27.82
2022-07-28T07:14:43.067Z,27.97
2022-07-28T07:17:10.523Z,28.18
2022-07-28T07:19:37.853Z,28.17
2022-07-28T07:22:09.535Z,28.29
2022-07-28T07:24:41.626Z,28.22
2022-07-28T07:27:09.542Z,28.27
2022-07-28T07:29:41.888Z,28.57
2022-07-28T07:32:14.625Z,28.66
2022-07-28T07:34:41.962Z,28.73
2022-07-28T07:37:13.833Z,28.72
2022-07-28T07:40:16.170Z,28.65
2022-07-28T07:42:46.446Z,28.75
2022-07-28T07:45:16.273Z,28.79
2022-07-28T07:47:43.530Z,28.68
2022-07-28T07:50:13.788Z,28.67
2022-07-28T07:52:43.415Z,28.70
2022-07-28T07:55:12.774Z,28.61
2022-07-28T07:57:45.688Z,28.85
2022-07-28T08:00:29.167Z,28.93
2022-07-28T08:03:02.187Z,28.88
2022-07-28T08:05:35.317Z,28.69
2022-07-28T08:08:05.047Z,28.69
2022-07-28T08:10:32.913Z,28.80
2022-07-28T08:13:00.273Z,28.68
2022-07-28T08:15:27.527Z,28.99
2022-07-28T08:18:08.273Z,28.91
2022-07-28T08:20:39.098Z,29.15
2022-07-28T08:23:09.164Z,29.32
2022-07-28T08:25:39.935Z,29.43
2022-07-28T08:28:11.771Z,29.67
2022-07-28T08:30:39.347Z,29.40
2022-07-28T08:33:06.564Z,29.08
2022-07-28T08:35:36.162Z,29.31
2022-07-28T08:38:05.035Z,29.62
2022-07-28T08:40:35.380Z,29.57
2022-07-28T08:43:21.723Z,29.33
2022-07-28T08:45:57.790Z,29.19
2022-07-28T08:48:25.778Z,29.33
2022-07-28T08:50:56.157Z,29.67
2022-07-28T08:53:26.232Z,29.56
2022-07-28T08:55:56.426Z,29.30
2022-07-28T08:58:26.219Z,29.32
2022-07-28T09:00:53.443Z,29.54
2022-07-28T09:03:22.969Z,29.89
2022-07-28T09:05:52.796Z,29.62
2022-07-28T09:08:25.429Z,29.72
2022-07-28T09:10:52.854Z,29.43
2022-07-28T09:13:20.252Z,29.75
2022-07-28T09:15:47.951Z,29.94
2022-07-28T09:18:16.286Z,29.91
2022-07-28T09:20:46.227Z,30.06
2022-07-28T09:23:43.178Z,29.82
2022-07-28T09:26:10.495Z,29.92
2022-07-28T09:28:58.116Z,30.00
2022-07-28T09:31:29.488Z,30.07
2022-07-28T09:34:01.198Z,30.04
2022-07-28T09:36:29.112Z,30.14
2022-07-28T09:38:56.886Z,30.07
2022-07-28T09:41:24.163Z,30.39
2022-07-28T09:43:56.206Z,30.38
2022-07-28T09:46:30.613Z,30.47
2022-07-28T09:49:01.354Z,30.24
2022-07-28T09:51:34.242Z,30.13
2022-07-28T09:54:12.156Z,30.40
2022-07-28T09:56:43.221Z,30.61
2022-07-28T09:59:11.604Z,30.92
2022-07-28T10:01:56.819Z,31.09
2022-07-28T10:04:30.779Z,31.10
2022-07-28T10:07:05.915Z,30.77
2022-07-28T10:09:34.391Z,30.59
2022-07-28T10:12:15.145Z,30.37
2022-07-28T10:14:46.396Z,30.53
2022-07-28T10:17:28.216Z,30.62
2022-07-28T10:20:16.651Z,31.24
2022-07-28T10:22:44.134Z,31.24
2022-07-28T10:25:13.716Z,31.41
2022-07-28T10:27:41.555Z,30.97
2022-07-28T10:30:09.275Z,31.17
2022-07-28T10:32:41.448Z,30.50
2022-07-28T10:35:12.255Z,30.53
2022-07-28T10:37:43.929Z,30.97
2022-07-28T10:40:12.564Z,31.22
2022-07-28T10:42:40.837Z,30.90
2022-07-28T10:45:08.638Z,31.08
2022-07-28T10:50:28.254Z,31.76
2022-07-28T10:52:59.400Z,31.61
2022-07-28T10:55:34.234Z,31.47
2022-07-28T10:58:25.128Z,32.05
2022-07-28T11:00:56.821Z,32.08
2022-07-28T11:03:47.474Z,32.38
2022-07-28T11:06:36.932Z,31.91
2022-07-28T11:09:16.758Z,32.39
2022-07-28T11:11:44.820Z,33.22
2022-07-28T11:14:24.772Z,32.65
2022-07-28T11:26:17.472Z,33.56
2022-07-28T11:29:00.390Z,33.98
2022-07-28T11:31:54.366Z,33.97
2022-07-28T11:34:22.797Z,33.87
2022-07-28T11:37:10.205Z,34.02
2022-07-28T11:39:45.426Z,33.03
2022-07-28T11:42:26.466Z,33.55
2022-07-28T11:44:54.399Z,34.68
2022-07-28T11:47:25.258Z,33.12
2022-07-28T11:50:10.916Z,34.30
2022-07-28T11:52:38.482Z,35.23
2022-07-28T11:55:06.427Z,34.58
2022-07-28T11:57:41.066Z,35.39
2022-07-28T12:00:14.059Z,35.24
2022-07-28T12:02:43.329Z,33.61
2022-07-28T12:05:11.513Z,35.06
2022-07-28T12:07:42.313Z,35.69
2022-07-28T12:10:53.199Z,35.23
2022-07-28T12:13:12.284Z,34.85
2022-07-28T12:15:42.782Z,35.45
2022-07-28T12:18:25.422Z,35.65
2022-07-28T12:20:55.718Z,34.26
2022-07-28T12:23:55.425Z,35.68
2022-07-28T12:26:40.807Z,36.53
2022-07-28T12:29:11.755Z,36.48
2022-07-28T12:31:39.449Z,35.51
2022-07-28T12:34:14.793Z,36.64
2022-07-28T12:36:42.478Z,35.62
2022-07-28T12:39:13.314Z,34.43
2022-07-28T12:41:43.175Z,33.69
2022-07-28T12:44:12.274Z,34.08
2022-07-28T12:46:41.881Z,35.11
2022-07-28T12:49:10.944Z,34.83
2022-07-28T12:51:41.865Z,35.89
2022-07-28T12:54:13.426Z,35.20
2022-07-28T12:56:48.304Z,34.41
2022-07-28T12:59:15.897Z,33.34
2022-07-28T13:01:47.155Z,33.12
2022-07-28T13:04:15.014Z,33.91
2022-07-28T13:06:42.861Z,34.57
2022-07-28T13:09:15.114Z,34.91
2022-07-28T13:11:47.256Z,34.51
2022-07-28T13:14:20.511Z,35.62
2022-07-28T13:16:57.880Z,34.89
2022-07-28T13:19:26.586Z,34.98
2022-07-28T13:22:00.763Z,34.41
2022-07-28T13:24:32.654Z,36.48
2022-07-28T13:27:00.269Z,35.92
2022-07-28T13:29:27.750Z,35.59
2022-07-28T13:31:55.417Z,36.00
2022-07-28T13:34:23.017Z,35.10
2022-07-28T13:36:50.571Z,34.25
2022-07-28T13:39:17.943Z,34.98
2022-07-28T13:41:56.421Z,34.67
2022-07-28T13:44:28.806Z,35.65
2022-07-28T13:46:59.342Z,35.50
2022-07-28T13:49:27.755Z,34.86
2022-07-28T13:51:58.666Z,35.46
2022-07-28T13:54:28.142Z,34.67
2022-07-28T13:56:55.932Z,34.72
2022-07-28T13:59:26.157Z,35.05
2022-07-28T14:01:56.165Z,34.30
2022-07-28T14:04:24.221Z,33.62
2022-07-28T14:06:54.440Z,33.49
2022-07-28T14:09:23.194Z,32.93
2022-07-28T14:11:54.248Z,32.90
2022-07-28T14:14:25.769Z,32.52
2022-07-28T14:16:56.420Z,32.62
2022-07-28T14:19:50.587Z,31.89
2022-07-28T14:22:18.691Z,32.16
2022-07-28T14:24:48.775Z,31.89
2022-07-28T14:27:16.238Z,31.64
2022-07-28T14:29:44.796Z,31.77
2022-07-28T14:32:12.989Z,31.45
2022-07-28T14:34:40.513Z,31.32
2022-07-28T14:37:11.552Z,31.36
2022-07-28T14:39:39.068Z,31.52
2022-07-28T14:42:10.415Z,31.85
2022-07-28T14:44:38.783Z,31.53
2022-07-28T14:47:07.665Z,31.78
2022-07-28T14:49:35.527Z,31.83
2022-07-28T14:52:07.826Z,32.01
2022-07-28T14:54:35.298Z,31.44
2022-07-28T14:57:05.202Z,31.87
2022-07-28T14:59:32.901Z,31.85
2022-07-28T15:02:03.365Z,31.85
2022-07-28T15:04:30.977Z,31.98
2022-07-28T15:07:01.781Z,31.73
2022-07-28T15:09:29.463Z,31.46
2022-07-28T15:11:56.852Z,31.53
2022-07-28T15:14:25.220Z,31.71
2022-07-28T15:16:52.910Z,32.03
2022-07-28T15:22:08.793Z,31.39
2022-07-28T15:24:37.345Z,31.50
2022-07-28T15:27:33.277Z,31.86
2022-07-28T15:30:02.874Z,31.78
2022-07-28T15:32:57.127Z,31.73
2022-07-28T15:35:25.908Z,31.38
2022-07-28T15:37:53.757Z,31.09
2022-07-28T15:40:22.291Z,31.16
2022-07-28T15:42:49.894Z,31.07
2022-07-28T15:45:20.130Z,31.22
2022-07-28T15:47:47.923Z,31.32
2022-07-28T15:50:17.635Z,31.15
2022-07-28T15:52:45.536Z,31.45
2022-07-28T15:55:13.159Z,31.33
2022-07-28T15:57:40.715Z,31.66
2022-07-28T16:00:08.831Z,31.46
2022-07-28T16:02:46.067Z,31.37
2022-07-28T16:05:14.057Z,31.40
2022-07-28T16:07:44.956Z,30.93
2022-07-28T16:10:13.163Z,30.71
2022-07-28T16:12:41.196Z,30.73
2022-07-28T16:15:08.997Z,30.77
2022-07-28T16:17:42.176Z,30.70
2022-07-28T16:20:10.466Z,30.75
2022-07-28T16:22:40.316Z,30.75
2022-07-28T16:25:09.418Z,30.94
2022-07-28T16:27:37.601Z,31.00
2022-07-28T16:30:05.520Z,31.08
2022-07-28T16:32:33.096Z,31.02
2022-07-28T16:35:00.490Z,31.02
2022-07-28T16:37:30.322Z,30.92
2022-07-28T16:39:57.703Z,31.09
2022-07-28T16:42:25.472Z,31.15
2022-07-28T16:44:53.170Z,31.11
2022-07-28T16:47:20.913Z,31.20
2022-07-28T16:49:51.301Z,31.10
2022-07-28T16:52:28.185Z,31.26
2022-07-28T16:55:00.465Z,31.42
2022-07-28T16:57:30.165Z,31.28
2022-07-28T16:59:57.696Z,31.22
2022-07-28T17:02:25.437Z,31.22
2022-07-28T17:04:52.911Z,31.19
2022-07-28T17:07:26.285Z,31.30
2022-07-28T17:09:57.988Z,31.30
2022-07-28T17:12:30.442Z,31.38
2022-07-28T17:15:02.593Z,31.33
2022-07-28T17:18:01.449Z,31.34
2022-07-28T17:20:36.091Z,30.95
2022-07-28T17:23:04.256Z,30.85
2022-07-28T17:25:52.662Z,30.84
2022-07-28T17:28:23.433Z,30.91
2022-07-28T17:30:51.327Z,31.12
2022-07-28T17:33:19.165Z,31.08
2022-07-28T17:35:47.162Z,30.82
2022-07-28T17:38:18.889Z,30.77
2022-07-28T17:41:05.211Z,30.80
2022-07-28T17:43:32.980Z,31.06
2022-07-28T17:46:01.024Z,30.86
2022-07-28T17:48:30.320Z,30.80
2022-07-28T17:50:58.250Z,30.88
2022-07-28T17:53:27.641Z,30.72
2022-07-28T17:56:01.203Z,30.57
2022-07-28T17:58:31.097Z,30.38
2022-07-28T18:01:11.289Z,30.37
2022-07-28T18:03:59.835Z,30.44
2022-07-28T18:06:29.949Z,30.52
2022-07-28T18:09:17.695Z,30.64
2022-07-28T18:11:56.939Z,30.55
2022-07-28T18:14:26.826Z,30.55
2022-07-28T18:16:54.479Z,30.59
2022-07-28T18:19:27.952Z,30.41
2022-07-28T18:21:57.935Z,30.48
2022-07-28T18:24:26.513Z,30.28
2022-07-28T18:26:57.069Z,30.51
2022-07-28T18:29:24.962Z,30.57
2022-07-28T18:32:19.621Z,30.32
2022-07-28T18:34:47.334Z,30.26
2022-07-28T18:37:15.052Z,30.29
2022-07-28T18:39:42.823Z,30.11
2022-07-28T18:42:10.977Z,30.07
2022-07-28T18:44:41.497Z,29.99
2022-07-28T18:47:09.098Z,30.02
2022-07-28T18:49:37.178Z,30.23
2022-07-28T18:52:07.053Z,30.30
2022-07-28T18:54:35.367Z,30.21
2022-07-28T18:57:02.958Z,30.37
2022-07-28T18:59:30.665Z,30.38
2022-07-28T19:01:58.410Z,30.31
2022-07-28T19:04:26.086Z,30.12
2022-07-28T19:06:53.615Z,30.28
2022-07-28T19:09:22.945Z,30.36
2022-07-28T19:11:51.569Z,30.34
2022-07-28T19:14:19.646Z,30.26
2022-07-28T19:16:49.796Z,30.09
2022-07-28T19:19:17.447Z,29.93
2022-07-28T19:21:45.316Z,29.97
2022-07-28T19:24:13.618Z,30.12
2022-07-28T19:26:41.933Z,30.07
2022-07-28T19:29:09.504Z,29.97
2022-07-28T19:31:38.031Z,29.98
2022-07-28T19:34:06.785Z,30.16
2022-07-28T19:36:37.650Z,30.04
2022-07-28T19:39:05.072Z,29.72
2022-07-28T19:41:35.308Z,29.65
2022-07-28T19:44:02.929Z,29.76
2022-07-28T19:46:33.773Z,29.82
2022-07-28T19:49:01.422Z,30.01
2022-07-28T19:51:29.038Z,29.96
2022-07-28T19:53:57.789Z,29.81
2022-07-28T19:56:31.527Z,29.87
2022-07-28T19:59:01.740Z,29.54
2022-07-28T20:01:31.984Z,29.42
2022-07-28T20:04:14.946Z,29.68
2022-07-28T20:06:42.819Z,29.81
2022-07-28T20:09:10.432Z,29.58
2022-07-28T20:11:41.116Z,29.69
2022-07-28T20:14:11.425Z,29.75
2022-07-28T20:16:42.843Z,29.83
2022-07-28T20:22:17.351Z,30.05
2022-07-28T20:24:45.168Z,29.93
2022-07-28T20:27:12.803Z,29.94
2022-07-28T20:29:43.505Z,30.09
2022-07-28T20:32:12.436Z,29.92
2022-07-28T20:34:40.018Z,29.93
2022-07-28T20:37:27.826Z,30.01
2022-07-28T20:39:57.823Z,29.95
2022-07-28T20:42:28.586Z,30.06
2022-07-28T20:44:56.143Z,30.15
2022-07-28T20:47:23.499Z,29.90
2022-07-28T20:49:50.691Z,29.74
2022-07-28T20:52:18.808Z,29.77
2022-07-28T20:54:50.635Z,29.82
2022-07-28T20:57:25.710Z,29.73
2022-07-28T20:59:53.358Z,29.86
2022-07-28T21:02:20.885Z,29.88
2022-07-28T21:04:50.592Z,29.98
2022-07-28T21:08:00.682Z,29.73
2022-07-28T21:10:06.228Z,29.78
2022-07-28T21:12:34.478Z,29.56
2022-07-28T21:15:01.701Z,29.19
2022-07-28T21:17:28.913Z,28.78
2022-07-28T21:19:58.577Z,28.69
2022-07-28T21:22:25.801Z,28.96
2022-07-28T21:24:55.355Z,29.05
2022-07-28T21:27:23.366Z,28.98
2022-07-28T21:32:17.912Z,29.23
2022-07-28T21:34:45.274Z,29.46
2022-07-28T21:37:13.706Z,29.35
2022-07-28T21:39:41.007Z,29.40
2022-07-28T21:42:09.334Z,29.48
2022-07-28T21:44:38.007Z,29.63
2022-07-28T21:47:07.749Z,29.15
2022-07-28T21:49:35.020Z,29.02
2022-07-28T21:52:02.242Z,29.14
2022-07-28T21:54:29.456Z,29.33
2022-07-28T21:56:56.820Z,29.29
2022-07-28T21:59:24.036Z,29.25
2022-07-28T22:01:54.443Z,29.21
2022-07-28T22:04:22.316Z,29.29
2022-07-28T22:06:50.003Z,29.50
2022-07-28T22:09:17.302Z,29.56
2022-07-28T22:11:44.570Z,29.55
2022-07-28T22:14:11.839Z,29.12
2022-07-28T22:16:39.232Z,28.25
2022-07-28T22:19:07.778Z,27.58
2022-07-28T22:21:34.958Z,27.25
2022-07-28T22:24:02.197Z,26.68
2022-07-28T22:26:29.496Z,26.09
2022-07-28T22:28:56.677Z,26.28
2022-07-28T22:31:23.949Z,25.86
2022-07-28T22:33:51.244Z,25.18
2022-07-28T22:36:20.067Z,24.81
2022-07-28T22:38:48.656Z,24.68
2022-07-28T22:41:15.840Z,24.58
2022-07-28T22:43:43.035Z,24.88
2022-07-28T22:46:10.419Z,24.39
2022-07-28T22:48:37.734Z,23.86
2022-07-28T22:51:14.936Z,24.44
2022-07-28T22:53:42.119Z,24.44
2022-07-28T22:56:09.846Z,24.93
2022-07-28T22:58:37.842Z,24.79
2022-07-28T23:01:05.910Z,25.30
2022-07-28T23:03:34.629Z,25.16
2022-07-28T23:06:03.490Z,25.02
2022-07-28T23:08:30.797Z,24.46
2022-07-28T23:10:58.360Z,24.35
2022-07-28T23:13:28.702Z,24.67
2022-07-28T23:15:59.938Z,24.95
2022-07-28T23:18:27.291Z,24.87
2022-07-28T23:20:54.613Z,25.27
2022-07-28T23:23:21.908Z,25.47
2022-07-28T23:25:49.241Z,25.29
2022-07-28T23:28:16.581Z,24.99
2022-07-28T23:30:45.613Z,25.08
2022-07-28T23:33:15.542Z,25.39
2022-07-28T23:36:00.291Z,25.37
2022-07-28T23:38:27.608Z,25.54
2022-07-28T23:40:54.862Z,25.77
2022-07-28T23:43:22.181Z,25.94
2022-07-28T23:45:49.495Z,25.99
2022-07-28T23:48:16.856Z,26.27
2022-07-28T23:50:44.534Z,25.91
2022-07-28T23:53:23.419Z,26.09
2022-07-28T23:55:50.740Z,26.49
2022-07-28T23:58:19.064Z,26.49
